sensor_id;sensor_type;location;lat;lon;timestamp;temperature;humidity
26212;DHT22;13951;49.516;6.094;2022-08-21T00:01:51;17.40;99.90
26212;DHT22;13951;49.516;6.094;2022-08-21T00:04:24;17.30;99.90
26212;DHT22;13951;49.516;6.094;2022-08-21T00:07:01;17.30;99.90
26212;DHT22;13951;49.516;6.094;2022-08-21T00:09:34;17.20;99.90
26212;DHT22;13951;49.516;6.094;2022-08-21T00:12:08;17.20;99.90
26212;DHT22;13951;49.516;6.094;2022-08-21T00:14:41;17.20;99.90
26212;DHT22;13951;49.516;6.094;2022-08-21T00:17:17;17.10;99.90
26212;DHT22;13951;49.516;6.094;2022-08-21T00:19:50;17.10;99.90
26212;DHT22;13951;49.516;6.094;2022-08-21T00:22:23;17.00;99.90
26212;DHT22;13951;49.516;6.094;2022-08-21T00:24:56;17.00;99.90
26212;DHT22;13951;49.516;6.094;2022-08-21T00:27:29;16.90;99.90
26212;DHT22;13951;49.516;6.094;2022-08-21T00:30:04;16.90;99.90
26212;DHT22;13951;49.516;6.094;2022-08-21T00:32:39;16.80;99.90
26212;DHT22;13951;49.516;6.094;2022-08-21T00:35:16;16.80;99.90
26212;DHT22;13951;49.516;6.094;2022-08-21T00:37:49;16.80;99.90
26212;DHT22;13951;49.516;6.094;2022-08-21T00:40:38;16.80;99.90
26212;DHT22;13951;49.516;6.094;2022-08-21T00:43:14;16.80;99.90
26212;DHT22;13951;49.516;6.094;2022-08-21T00:45:48;16.80;99.90
26212;DHT22;13951;49.516;6.094;2022-08-21T00:48:22;16.80;99.90
26212;DHT22;13951;49.516;6.094;2022-08-21T00:51:00;16.70;99.90
26212;DHT22;13951;49.516;6.094;2022-08-21T00:53:38;16.70;99.90
26212;DHT22;13951;49.516;6.094;2022-08-21T00:56:12;16.50;99.90
26212;DHT22;13951;49.516;6.094;2022-08-21T00:58:46;16.50;99.90
26212;DHT22;13951;49.516;6.094;2022-08-21T01:01:25;16.30;99.90
26212;DHT22;13951;49.516;6.094;2022-08-21T01:03:58;16.30;99.90
26212;DHT22;13951;49.516;6.094;2022-08-21T01:06:31;16.30;99.90
26212;DHT22;13951;49.516;6.094;2022-08-21T01:09:05;16.20;99.90
26212;DHT22;13951;49.516;6.094;2022-08-21T01:11:38;16.20;99.90
26212;DHT22;13951;49.516;6.094;2022-08-21T01:14:12;16.30;99.90
26212;DHT22;13951;49.516;6.094;2022-08-21T01:16:47;16.20;99.90
26212;DHT22;13951;49.516;6.094;2022-08-21T01:19:22;16.10;99.90
26212;DHT22;13951;49.516;6.094;2022-08-21T01:21:55;16.10;99.90
26212;DHT22;13951;49.516;6.094;2022-08-21T01:24:28;16.10;99.90
26212;DHT22;13951;49.516;6.094;2022-08-21T01:27:02;16.00;99.90
26212;DHT22;13951;49.516;6.094;2022-08-21T01:29:44;16.10;99.90
26212;DHT22;13951;49.516;6.094;2022-08-21T01:32:19;16.00;99.90
26212;DHT22;13951;49.516;6.094;2022-08-21T01:34:53;15.90;99.90
26212;DHT22;13951;49.516;6.094;2022-08-21T01:37:26;16.00;99.90
26212;DHT22;13951;49.516;6.094;2022-08-21T01:39:59;15.90;99.90
26212;DHT22;13951;49.516;6.094;2022-08-21T01:42:32;15.90;99.90
26212;DHT22;13951;49.516;6.094;2022-08-21T01:45:07;15.90;99.90
26212;DHT22;13951;49.516;6.094;2022-08-21T01:47:40;15.90;99.90
26212;DHT22;13951;49.516;6.094;2022-08-21T01:50:18;15.90;99.90
26212;DHT22;13951;49.516;6.094;2022-08-21T01:52:52;15.80;99.90
26212;DHT22;13951;49.516;6.094;2022-08-21T01:55:25;15.80;99.90
26212;DHT22;13951;49.516;6.094;2022-08-21T01:57:59;15.80;99.90
26212;DHT22;13951;49.516;6.094;2022-08-21T02:00:32;15.80;99.90
26212;DHT22;13951;49.516;6.094;2022-08-21T02:03:05;15.80;99.90
26212;DHT22;13951;49.516;6.094;2022-08-21T02:05:38;15.70;99.90
26212;DHT22;13951;49.516;6.094;2022-08-21T02:08:11;15.80;99.90
26212;DHT22;13951;49.516;6.094;2022-08-21T02:10:45;15.80;99.90
26212;DHT22;13951;49.516;6.094;2022-08-21T02:13:21;15.80;99.90
26212;DHT22;13951;49.516;6.094;2022-08-21T02:15:54;15.70;99.90
26212;DHT22;13951;49.516;6.094;2022-08-21T02:18:27;15.70;99.90
26212;DHT22;13951;49.516;6.094;2022-08-21T02:21:00;15.70;99.90
26212;DHT22;13951;49.516;6.094;2022-08-21T02:23:34;15.60;99.90
26212;DHT22;13951;49.516;6.094;2022-08-21T02:26:08;15.60;99.90
26212;DHT22;13951;49.516;6.094;2022-08-21T02:28:41;15.60;99.90
26212;DHT22;13951;49.516;6.094;2022-08-21T02:31:15;15.60;99.90
26212;DHT22;13951;49.516;6.094;2022-08-21T02:33:48;15.60;99.90
26212;DHT22;13951;49.516;6.094;2022-08-21T02:36:21;15.60;99.90
26212;DHT22;13951;49.516;6.094;2022-08-21T02:38:54;15.70;99.90
26212;DHT22;13951;49.516;6.094;2022-08-21T02:41:27;15.60;99.90
26212;DHT22;13951;49.516;6.094;2022-08-21T02:44:00;15.60;99.90
26212;DHT22;13951;49.516;6.094;2022-08-21T02:46:33;15.60;99.90
26212;DHT22;13951;49.516;6.094;2022-08-21T02:49:06;15.60;99.90
26212;DHT22;13951;49.516;6.094;2022-08-21T02:51:39;15.50;99.90
26212;DHT22;13951;49.516;6.094;2022-08-21T02:54:12;15.50;99.90
26212;DHT22;13951;49.516;6.094;2022-08-21T02:56:45;15.50;99.90
26212;DHT22;13951;49.516;6.094;2022-08-21T02:59:18;15.50;99.90
26212;DHT22;13951;49.516;6.094;2022-08-21T03:01:52;15.50;99.90
26212;DHT22;13951;49.516;6.094;2022-08-21T03:04:25;15.50;99.90
26212;DHT22;13951;49.516;6.094;2022-08-21T03:06:58;15.50;99.90
26212;DHT22;13951;49.516;6.094;2022-08-21T03:09:31;15.40;99.90
26212;DHT22;13951;49.516;6.094;2022-08-21T03:12:04;15.40;99.90
26212;DHT22;13951;49.516;6.094;2022-08-21T03:14:37;15.40;99.90
26212;DHT22;13951;49.516;6.094;2022-08-21T03:19:44;14.80;99.90
26212;DHT22;13951;49.516;6.094;2022-08-21T03:22:17;14.70;99.90
26212;DHT22;13951;49.516;6.094;2022-08-21T03:24:50;14.70;99.90
26212;DHT22;13951;49.516;6.094;2022-08-21T03:27:25;14.70;99.90
26212;DHT22;13951;49.516;6.094;2022-08-21T03:30:02;14.70;99.90
26212;DHT22;13951;49.516;6.094;2022-08-21T03:32:36;14.70;99.90
26212;DHT22;13951;49.516;6.094;2022-08-21T03:35:09;14.70;99.90
26212;DHT22;13951;49.516;6.094;2022-08-21T03:37:43;14.60;99.90
26212;DHT22;13951;49.516;6.094;2022-08-21T03:40:18;14.60;99.90
26212;DHT22;13951;49.516;6.094;2022-08-21T03:42:53;14.60;99.90
26212;DHT22;13951;49.516;6.094;2022-08-21T03:45:26;14.60;99.90
26212;DHT22;13951;49.516;6.094;2022-08-21T03:48:02;14.60;99.90
26212;DHT22;13951;49.516;6.094;2022-08-21T03:50:39;14.70;99.90
26212;DHT22;13951;49.516;6.094;2022-08-21T03:53:14;14.70;99.90
26212;DHT22;13951;49.516;6.094;2022-08-21T03:55:50;14.80;99.90
26212;DHT22;13951;49.516;6.094;2022-08-21T03:58:27;14.70;99.90
26212;DHT22;13951;49.516;6.094;2022-08-21T04:01:01;14.60;99.90
26212;DHT22;13951;49.516;6.094;2022-08-21T04:03:36;14.70;99.90
26212;DHT22;13951;49.516;6.094;2022-08-21T04:06:09;14.70;99.90
26212;DHT22;13951;49.516;6.094;2022-08-21T04:08:42;14.70;99.90
26212;DHT22;13951;49.516;6.094;2022-08-21T04:11:15;14.70;99.90
26212;DHT22;13951;49.516;6.094;2022-08-21T04:13:49;14.60;99.90
26212;DHT22;13951;49.516;6.094;2022-08-21T04:16:22;14.70;99.90
26212;DHT22;13951;49.516;6.094;2022-08-21T04:18:55;14.60;99.90
26212;DHT22;13951;49.516;6.094;2022-08-21T04:21:28;14.50;99.90
26212;DHT22;13951;49.516;6.094;2022-08-21T04:24:02;14.50;99.90
26212;DHT22;13951;49.516;6.094;2022-08-21T04:26:36;14.50;99.90
26212;DHT22;13951;49.516;6.094;2022-08-21T04:29:09;14.50;99.90
26212;DHT22;13951;49.516;6.094;2022-08-21T04:31:42;14.50;99.90
26212;DHT22;13951;49.516;6.094;2022-08-21T04:34:16;14.50;99.90
26212;DHT22;13951;49.516;6.094;2022-08-21T04:36:49;14.30;99.90
26212;DHT22;13951;49.516;6.094;2022-08-21T04:39:22;14.20;99.90
26212;DHT22;13951;49.516;6.094;2022-08-21T04:42:01;14.20;99.90
26212;DHT22;13951;49.516;6.094;2022-08-21T04:44:34;14.20;99.90
26212;DHT22;13951;49.516;6.094;2022-08-21T04:47:07;14.30;99.90
26212;DHT22;13951;49.516;6.094;2022-08-21T04:49:40;14.20;99.90
26212;DHT22;13951;49.516;6.094;2022-08-21T04:52:16;14.20;99.90
26212;DHT22;13951;49.516;6.094;2022-08-21T04:54:50;14.30;99.90
26212;DHT22;13951;49.516;6.094;2022-08-21T04:57:26;14.40;99.90
26212;DHT22;13951;49.516;6.094;2022-08-21T05:00:22;14.30;99.90
26212;DHT22;13951;49.516;6.094;2022-08-21T05:02:57;14.30;99.90
26212;DHT22;13951;49.516;6.094;2022-08-21T05:05:32;14.30;99.90
26212;DHT22;13951;49.516;6.094;2022-08-21T05:08:07;14.30;99.90
26212;DHT22;13951;49.516;6.094;2022-08-21T05:10:40;14.30;99.90
26212;DHT22;13951;49.516;6.094;2022-08-21T05:13:15;14.30;99.90
26212;DHT22;13951;49.516;6.094;2022-08-21T05:15:48;14.20;99.90
26212;DHT22;13951;49.516;6.094;2022-08-21T05:18:21;14.30;99.90
26212;DHT22;13951;49.516;6.094;2022-08-21T05:20:54;14.30;99.90
26212;DHT22;13951;49.516;6.094;2022-08-21T05:38:48;14.70;99.90
26212;DHT22;13951;49.516;6.094;2022-08-21T05:41:22;14.80;99.90
26212;DHT22;13951;49.516;6.094;2022-08-21T05:43:55;14.80;99.90
26212;DHT22;13951;49.516;6.094;2022-08-21T05:46:28;14.90;99.90
26212;DHT22;13951;49.516;6.094;2022-08-21T05:49:01;14.90;99.90
26212;DHT22;13951;49.516;6.094;2022-08-21T05:51:34;15.00;99.90
26212;DHT22;13951;49.516;6.094;2022-08-21T05:54:07;14.90;99.90
26212;DHT22;13951;49.516;6.094;2022-08-21T05:56:40;15.00;99.90
26212;DHT22;13951;49.516;6.094;2022-08-21T05:59:17;15.10;99.90
26212;DHT22;13951;49.516;6.094;2022-08-21T06:01:51;15.20;99.90
26212;DHT22;13951;49.516;6.094;2022-08-21T06:04:25;15.30;99.90
26212;DHT22;13951;49.516;6.094;2022-08-21T06:06:59;15.40;99.90
26212;DHT22;13951;49.516;6.094;2022-08-21T06:09:32;15.70;99.90
26212;DHT22;13951;49.516;6.094;2022-08-21T06:12:09;15.80;99.90
26212;DHT22;13951;49.516;6.094;2022-08-21T06:14:42;16.00;99.90
26212;DHT22;13951;49.516;6.094;2022-08-21T06:17:16;16.20;99.90
26212;DHT22;13951;49.516;6.094;2022-08-21T06:19:53;16.40;99.90
26212;DHT22;13951;49.516;6.094;2022-08-21T06:22:26;16.60;99.90
26212;DHT22;13951;49.516;6.094;2022-08-21T06:24:59;16.90;99.90
26212;DHT22;13951;49.516;6.094;2022-08-21T06:27:32;17.10;99.90
26212;DHT22;13951;49.516;6.094;2022-08-21T06:30:06;17.30;99.90
26212;DHT22;13951;49.516;6.094;2022-08-21T06:32:40;17.60;99.90
26212;DHT22;13951;49.516;6.094;2022-08-21T06:35:14;17.80;99.90
26212;DHT22;13951;49.516;6.094;2022-08-21T06:37:47;18.00;99.90
26212;DHT22;13951;49.516;6.094;2022-08-21T06:40:20;18.10;99.90
26212;DHT22;13951;49.516;6.094;2022-08-21T06:42:53;18.20;99.90
26212;DHT22;13951;49.516;6.094;2022-08-21T06:45:27;18.20;99.90
26212;DHT22;13951;49.516;6.094;2022-08-21T06:48:04;18.40;99.90
26212;DHT22;13951;49.516;6.094;2022-08-21T06:50:40;18.60;99.90
26212;DHT22;13951;49.516;6.094;2022-08-21T06:53:15;18.70;99.90
26212;DHT22;13951;49.516;6.094;2022-08-21T06:55:48;18.90;99.90
26212;DHT22;13951;49.516;6.094;2022-08-21T06:58:21;19.00;99.90
26212;DHT22;13951;49.516;6.094;2022-08-21T07:00:55;19.20;99.90
26212;DHT22;13951;49.516;6.094;2022-08-21T07:03:36;19.40;99.90
26212;DHT22;13951;49.516;6.094;2022-08-21T07:06:10;19.50;99.90
26212;DHT22;13951;49.516;6.094;2022-08-21T07:08:43;19.60;99.90
26212;DHT22;13951;49.516;6.094;2022-08-21T07:11:24;19.80;99.90
26212;DHT22;13951;49.516;6.094;2022-08-21T07:13:57;19.90;99.90
26212;DHT22;13951;49.516;6.094;2022-08-21T07:16:31;20.00;99.90
26212;DHT22;13951;49.516;6.094;2022-08-21T07:19:04;20.20;99.90
26212;DHT22;13951;49.516;6.094;2022-08-21T07:21:37;20.40;99.90
26212;DHT22;13951;49.516;6.094;2022-08-21T07:24:11;20.70;99.90
26212;DHT22;13951;49.516;6.094;2022-08-21T07:26:45;20.90;99.90
26212;DHT22;13951;49.516;6.094;2022-08-21T07:29:18;21.00;99.90
26212;DHT22;13951;49.516;6.094;2022-08-21T07:31:51;21.30;99.90
26212;DHT22;13951;49.516;6.094;2022-08-21T07:34:24;21.60;99.90
26212;DHT22;13951;49.516;6.094;2022-08-21T07:36:58;21.80;99.90
26212;DHT22;13951;49.516;6.094;2022-08-21T07:39:38;21.90;99.90
26212;DHT22;13951;49.516;6.094;2022-08-21T07:42:11;22.00;99.90
26212;DHT22;13951;49.516;6.094;2022-08-21T07:44:44;22.10;99.90
26212;DHT22;13951;49.516;6.094;2022-08-21T07:47:17;22.30;99.90
26212;DHT22;13951;49.516;6.094;2022-08-21T07:50:12;22.50;99.90
26212;DHT22;13951;49.516;6.094;2022-08-21T07:52:46;22.60;99.90
26212;DHT22;13951;49.516;6.094;2022-08-21T07:55:21;22.70;99.90
26212;DHT22;13951;49.516;6.094;2022-08-21T07:57:55;22.90;99.90
26212;DHT22;13951;49.516;6.094;2022-08-21T08:00:29;23.00;99.90
26212;DHT22;13951;49.516;6.094;2022-08-21T08:03:03;23.20;99.90
26212;DHT22;13951;49.516;6.094;2022-08-21T08:05:36;23.30;99.90
26212;DHT22;13951;49.516;6.094;2022-08-21T08:08:11;23.30;99.90
26212;DHT22;13951;49.516;6.094;2022-08-21T08:10:44;23.30;99.90
26212;DHT22;13951;49.516;6.094;2022-08-21T08:13:18;23.40;99.90
26212;DHT22;13951;49.516;6.094;2022-08-21T08:15:51;23.50;99.90
26212;DHT22;13951;49.516;6.094;2022-08-21T08:18:24;23.60;99.90
26212;DHT22;13951;49.516;6.094;2022-08-21T08:20:57;23.80;99.90
26212;DHT22;13951;49.516;6.094;2022-08-21T08:23:30;23.90;99.90
26212;DHT22;13951;49.516;6.094;2022-08-21T08:26:04;24.10;99.90
26212;DHT22;13951;49.516;6.094;2022-08-21T08:28:38;24.10;99.90
26212;DHT22;13951;49.516;6.094;2022-08-21T08:31:11;24.20;99.50
26212;DHT22;13951;49.516;6.094;2022-08-21T08:33:44;24.20;99.40
26212;DHT22;13951;49.516;6.094;2022-08-21T08:36:18;24.20;98.50
26212;DHT22;13951;49.516;6.094;2022-08-21T08:38:51;24.20;98.80
26212;DHT22;13951;49.516;6.094;2022-08-21T08:41:25;24.20;99.10
26212;DHT22;13951;49.516;6.094;2022-08-21T08:44:04;24.40;98.00
26212;DHT22;13951;49.516;6.094;2022-08-21T08:46:48;24.50;96.40
26212;DHT22;13951;49.516;6.094;2022-08-21T08:52:29;24.70;96.80
26212;DHT22;13951;49.516;6.094;2022-08-21T08:57:46;24.80;95.20
26212;DHT22;13951;49.516;6.094;2022-08-21T09:00:23;24.90;94.30
26212;DHT22;13951;49.516;6.094;2022-08-21T09:03:00;25.00;95.40
26212;DHT22;13951;49.516;6.094;2022-08-21T09:06:00;25.10;95.70
26212;DHT22;13951;49.516;6.094;2022-08-21T09:09:55;25.10;95.20
26212;DHT22;13951;49.516;6.094;2022-08-21T09:13:02;25.20;94.70
26212;DHT22;13951;49.516;6.094;2022-08-21T09:36:58;25.20;92.90
26212;DHT22;13951;49.516;6.094;2022-08-21T09:39:40;25.10;92.40
26212;DHT22;13951;49.516;6.094;2022-08-21T09:42:28;25.00;93.20
26212;DHT22;13951;49.516;6.094;2022-08-21T09:45:15;24.90;93.20
26212;DHT22;13951;49.516;6.094;2022-08-21T09:51:05;24.60;91.20
26212;DHT22;13951;49.516;6.094;2022-08-21T09:54:10;24.60;93.00
26212;DHT22;13951;49.516;6.094;2022-08-21T09:59:55;24.80;92.50
26212;DHT22;13951;49.516;6.094;2022-08-21T10:02:34;24.80;92.50
26212;DHT22;13951;49.516;6.094;2022-08-21T10:05:24;24.80;93.10
26212;DHT22;13951;49.516;6.094;2022-08-21T10:08:01;24.80;92.30
26212;DHT22;13951;49.516;6.094;2022-08-21T10:10:37;24.70;91.00
26212;DHT22;13951;49.516;6.094;2022-08-21T10:13:26;24.70;91.10
26212;DHT22;13951;49.516;6.094;2022-08-21T10:16:23;24.80;92.60
26212;DHT22;13951;49.516;6.094;2022-08-21T10:27:57;25.10;90.20
26212;DHT22;13951;49.516;6.094;2022-08-21T10:30:57;24.90;90.90
26212;DHT22;13951;49.516;6.094;2022-08-21T10:33:53;24.90;91.90
26212;DHT22;13951;49.516;6.094;2022-08-21T10:37:01;24.80;91.80
26212;DHT22;13951;49.516;6.094;2022-08-21T10:45:46;24.80;92.40
26212;DHT22;13951;49.516;6.094;2022-08-21T10:48:47;25.00;92.00
26212;DHT22;13951;49.516;6.094;2022-08-21T10:57:16;25.70;90.00
26212;DHT22;13951;49.516;6.094;2022-08-21T11:00:10;25.70;89.20
26212;DHT22;13951;49.516;6.094;2022-08-21T11:03:23;25.80;87.90
26212;DHT22;13951;49.516;6.094;2022-08-21T11:06:07;25.70;86.70
26212;DHT22;13951;49.516;6.094;2022-08-21T11:08:51;25.80;86.90
26212;DHT22;13951;49.516;6.094;2022-08-21T11:11:33;26.10;85.80
26212;DHT22;13951;49.516;6.094;2022-08-21T11:17:07;26.40;84.10
26212;DHT22;13951;49.516;6.094;2022-08-21T11:22:52;26.80;81.80
26212;DHT22;13951;49.516;6.094;2022-08-21T11:25:41;26.90;83.90
26212;DHT22;13951;49.516;6.094;2022-08-21T11:28:26;27.10;81.90
26212;DHT22;13951;49.516;6.094;2022-08-21T11:31:16;27.30;82.70
26212;DHT22;13951;49.516;6.094;2022-08-21T11:37:03;28.20;82.80
26212;DHT22;13951;49.516;6.094;2022-08-21T11:45:27;28.90;78.60
26212;DHT22;13951;49.516;6.094;2022-08-21T11:48:40;29.10;78.80
26212;DHT22;13951;49.516;6.094;2022-08-21T11:51:21;29.20;71.50
26212;DHT22;13951;49.516;6.094;2022-08-21T11:57:00;29.60;74.20
26212;DHT22;13951;49.516;6.094;2022-08-21T12:02:53;29.70;72.00
26212;DHT22;13951;49.516;6.094;2022-08-21T12:05:33;29.80;70.30
26212;DHT22;13951;49.516;6.094;2022-08-21T12:08:29;29.80;70.70
26212;DHT22;13951;49.516;6.094;2022-08-21T12:11:23;29.90;69.70
26212;DHT22;13951;49.516;6.094;2022-08-21T12:16:40;30.10;69.00
26212;DHT22;13951;49.516;6.094;2022-08-21T12:21:59;30.20;67.30
26212;DHT22;13951;49.516;6.094;2022-08-21T12:24:53;30.30;67.80
26212;DHT22;13951;49.516;6.094;2022-08-21T12:29:30;30.40;65.90
26212;DHT22;13951;49.516;6.094;2022-08-21T12:32:26;30.30;64.90
26212;DHT22;13951;49.516;6.094;2022-08-21T12:36:02;30.20;65.70
26212;DHT22;13951;49.516;6.094;2022-08-21T12:38:15;29.90;65.50
26212;DHT22;13951;49.516;6.094;2022-08-21T12:41:01;29.50;63.90
26212;DHT22;13951;49.516;6.094;2022-08-21T12:43:41;29.20;66.80
26212;DHT22;13951;49.516;6.094;2022-08-21T12:46:29;29.10;68.00
26212;DHT22;13951;49.516;6.094;2022-08-21T12:54:41;29.20;66.90
26212;DHT22;13951;49.516;6.094;2022-08-21T12:57:23;28.90;67.20
26212;DHT22;13951;49.516;6.094;2022-08-21T12:59:59;28.50;67.20
26212;DHT22;13951;49.516;6.094;2022-08-21T13:02:36;28.30;67.90
26212;DHT22;13951;49.516;6.094;2022-08-21T13:05:15;28.00;68.20
26212;DHT22;13951;49.516;6.094;2022-08-21T13:07:48;27.80;68.60
26212;DHT22;13951;49.516;6.094;2022-08-21T13:10:24;27.70;71.60
26212;DHT22;13951;49.516;6.094;2022-08-21T13:13:12;27.70;70.20
26212;DHT22;13951;49.516;6.094;2022-08-21T13:16:04;27.50;71.00
26212;DHT22;13951;49.516;6.094;2022-08-21T13:21:38;27.30;70.90
26212;DHT22;13951;49.516;6.094;2022-08-21T13:24:23;27.20;70.10
26212;DHT22;13951;49.516;6.094;2022-08-21T13:27:21;27.20;71.00
26212;DHT22;13951;49.516;6.094;2022-08-21T13:30:06;27.10;71.10
26212;DHT22;13951;49.516;6.094;2022-08-21T13:32:43;27.10;70.10
26212;DHT22;13951;49.516;6.094;2022-08-21T13:35:46;27.10;72.70
26212;DHT22;13951;49.516;6.094;2022-08-21T13:38:21;27.10;70.40
26212;DHT22;13951;49.516;6.094;2022-08-21T13:41:49;27.10;67.70
26212;DHT22;13951;49.516;6.094;2022-08-21T13:44:52;27.10;68.30
26212;DHT22;13951;49.516;6.094;2022-08-21T13:47:04;27.00;71.10
26212;DHT22;13951;49.516;6.094;2022-08-21T13:49:40;27.00;72.00
26212;DHT22;13951;49.516;6.094;2022-08-21T13:52:23;26.90;72.00
26212;DHT22;13951;49.516;6.094;2022-08-21T13:55:09;26.90;70.70
26212;DHT22;13951;49.516;6.094;2022-08-21T13:57:44;26.80;73.00
26212;DHT22;13951;49.516;6.094;2022-08-21T14:00:28;26.70;72.20
26212;DHT22;13951;49.516;6.094;2022-08-21T14:03:06;26.70;72.10
26212;DHT22;13951;49.516;6.094;2022-08-21T14:05:45;26.60;72.20
26212;DHT22;13951;49.516;6.094;2022-08-21T14:08:34;26.50;73.50
26212;DHT22;13951;49.516;6.094;2022-08-21T14:11:11;26.40;75.60
26212;DHT22;13951;49.516;6.094;2022-08-21T14:13:56;26.30;74.10
26212;DHT22;13951;49.516;6.094;2022-08-21T14:16:41;26.30;74.20
26212;DHT22;13951;49.516;6.094;2022-08-21T14:19:23;26.20;74.30
26212;DHT22;13951;49.516;6.094;2022-08-21T14:22:00;26.20;77.60
26212;DHT22;13951;49.516;6.094;2022-08-21T14:24:39;26.20;78.30
26212;DHT22;13951;49.516;6.094;2022-08-21T14:27:16;26.10;75.70
26212;DHT22;13951;49.516;6.094;2022-08-21T14:29:50;26.10;75.00
26212;DHT22;13951;49.516;6.094;2022-08-21T14:32:27;26.10;75.60
26212;DHT22;13951;49.516;6.094;2022-08-21T14:35:05;26.00;75.70
26212;DHT22;13951;49.516;6.094;2022-08-21T14:37:42;26.00;77.60
26212;DHT22;13951;49.516;6.094;2022-08-21T14:40:17;26.00;75.90
26212;DHT22;13951;49.516;6.094;2022-08-21T14:42:51;26.00;74.70
26212;DHT22;13951;49.516;6.094;2022-08-21T14:45:29;26.00;74.70
26212;DHT22;13951;49.516;6.094;2022-08-21T14:48:11;26.00;73.60
26212;DHT22;13951;49.516;6.094;2022-08-21T14:50:45;26.00;75.80
26212;DHT22;13951;49.516;6.094;2022-08-21T14:53:19;26.10;73.50
26212;DHT22;13951;49.516;6.094;2022-08-21T14:55:54;26.10;75.40
26212;DHT22;13951;49.516;6.094;2022-08-21T14:58:45;26.10;74.70
26212;DHT22;13951;49.516;6.094;2022-08-21T15:01:23;26.10;76.10
26212;DHT22;13951;49.516;6.094;2022-08-21T15:04:06;26.20;73.20
26212;DHT22;13951;49.516;6.094;2022-08-21T15:06:47;26.10;74.20
26212;DHT22;13951;49.516;6.094;2022-08-21T15:09:25;26.10;75.00
26212;DHT22;13951;49.516;6.094;2022-08-21T15:12:11;26.10;74.60
26212;DHT22;13951;49.516;6.094;2022-08-21T15:14:46;26.10;74.90
26212;DHT22;13951;49.516;6.094;2022-08-21T15:17:19;26.10;74.80
26212;DHT22;13951;49.516;6.094;2022-08-21T15:19:52;26.10;76.10
26212;DHT22;13951;49.516;6.094;2022-08-21T15:22:25;26.10;75.80
26212;DHT22;13951;49.516;6.094;2022-08-21T15:25:00;26.10;73.90
26212;DHT22;13951;49.516;6.094;2022-08-21T15:27:34;26.10;73.80
26212;DHT22;13951;49.516;6.094;2022-08-21T15:30:08;26.10;73.80
26212;DHT22;13951;49.516;6.094;2022-08-21T15:32:41;26.10;74.40
26212;DHT22;13951;49.516;6.094;2022-08-21T15:35:14;26.10;75.30
26212;DHT22;13951;49.516;6.094;2022-08-21T15:37:47;26.10;74.60
26212;DHT22;13951;49.516;6.094;2022-08-21T15:40:20;26.00;74.20
26212;DHT22;13951;49.516;6.094;2022-08-21T15:42:57;26.00;75.20
26212;DHT22;13951;49.516;6.094;2022-08-21T15:45:33;26.00;75.40
26212;DHT22;13951;49.516;6.094;2022-08-21T15:48:06;25.90;75.60
26212;DHT22;13951;49.516;6.094;2022-08-21T15:50:39;25.90;75.60
26212;DHT22;13951;49.516;6.094;2022-08-21T15:53:13;25.90;75.40
26212;DHT22;13951;49.516;6.094;2022-08-21T15:55:48;25.90;76.00
26212;DHT22;13951;49.516;6.094;2022-08-21T15:58:32;25.80;76.10
26212;DHT22;13951;49.516;6.094;2022-08-21T16:01:13;25.80;75.70
26212;DHT22;13951;49.516;6.094;2022-08-21T16:03:58;25.70;76.10
26212;DHT22;13951;49.516;6.094;2022-08-21T16:06:45;25.70;77.00
26212;DHT22;13951;49.516;6.094;2022-08-21T16:09:38;25.70;76.20
26212;DHT22;13951;49.516;6.094;2022-08-21T16:12:24;25.70;76.60
26212;DHT22;13951;49.516;6.094;2022-08-21T16:15:08;25.70;76.90
26212;DHT22;13951;49.516;6.094;2022-08-21T16:17:52;25.60;75.50
26212;DHT22;13951;49.516;6.094;2022-08-21T16:20:27;25.60;76.50
26212;DHT22;13951;49.516;6.094;2022-08-21T16:23:01;25.60;78.20
26212;DHT22;13951;49.516;6.094;2022-08-21T16:25:36;25.50;77.80
26212;DHT22;13951;49.516;6.094;2022-08-21T16:28:14;25.40;77.10
26212;DHT22;13951;49.516;6.094;2022-08-21T16:30:50;25.40;76.60
26212;DHT22;13951;49.516;6.094;2022-08-21T16:33:37;25.40;78.20
26212;DHT22;13951;49.516;6.094;2022-08-21T16:36:13;25.30;78.20
26212;DHT22;13951;49.516;6.094;2022-08-21T16:38:46;25.20;77.90
26212;DHT22;13951;49.516;6.094;2022-08-21T16:41:21;25.10;77.20
26212;DHT22;13951;49.516;6.094;2022-08-21T16:43:54;25.10;78.00
26212;DHT22;13951;49.516;6.094;2022-08-21T16:46:34;25.10;78.50
26212;DHT22;13951;49.516;6.094;2022-08-21T16:49:08;25.10;78.20
26212;DHT22;13951;49.516;6.094;2022-08-21T16:51:41;25.10;77.90
26212;DHT22;13951;49.516;6.094;2022-08-21T16:54:15;25.10;78.40
26212;DHT22;13951;49.516;6.094;2022-08-21T16:56:49;25.10;77.70
26212;DHT22;13951;49.516;6.094;2022-08-21T16:59:25;25.10;78.70
26212;DHT22;13951;49.516;6.094;2022-08-21T17:01:58;25.10;79.20
26212;DHT22;13951;49.516;6.094;2022-08-21T17:04:31;25.00;79.40
26212;DHT22;13951;49.516;6.094;2022-08-21T17:07:05;25.00;79.20
26212;DHT22;13951;49.516;6.094;2022-08-21T17:09:38;24.90;79.00
26212;DHT22;13951;49.516;6.094;2022-08-21T17:12:11;24.90;78.40
26212;DHT22;13951;49.516;6.094;2022-08-21T17:14:44;24.80;78.60
26212;DHT22;13951;49.516;6.094;2022-08-21T17:17:17;24.80;79.70
26212;DHT22;13951;49.516;6.094;2022-08-21T17:19:50;24.70;79.60
26212;DHT22;13951;49.516;6.094;2022-08-21T17:22:23;24.70;79.90
26212;DHT22;13951;49.516;6.094;2022-08-21T17:24:56;24.70;80.90
26212;DHT22;13951;49.516;6.094;2022-08-21T17:27:29;24.60;80.70
26212;DHT22;13951;49.516;6.094;2022-08-21T17:30:03;24.60;80.40
26212;DHT22;13951;49.516;6.094;2022-08-21T17:32:38;24.50;80.60
26212;DHT22;13951;49.516;6.094;2022-08-21T17:35:12;24.50;80.30
26212;DHT22;13951;49.516;6.094;2022-08-21T17:37:46;24.50;80.10
26212;DHT22;13951;49.516;6.094;2022-08-21T17:40:19;24.50;80.50
26212;DHT22;13951;49.516;6.094;2022-08-21T17:42:52;24.40;81.70
26212;DHT22;13951;49.516;6.094;2022-08-21T17:45:25;24.40;80.30
26212;DHT22;13951;49.516;6.094;2022-08-21T17:47:59;24.40;80.30
26212;DHT22;13951;49.516;6.094;2022-08-21T17:50:32;24.30;82.50
26212;DHT22;13951;49.516;6.094;2022-08-21T17:53:05;24.20;81.70
26212;DHT22;13951;49.516;6.094;2022-08-21T17:55:39;24.20;81.30
26212;DHT22;13951;49.516;6.094;2022-08-21T17:58:13;24.10;82.40
26212;DHT22;13951;49.516;6.094;2022-08-21T18:00:47;24.10;83.10
26212;DHT22;13951;49.516;6.094;2022-08-21T18:03:22;24.10;82.80
26212;DHT22;13951;49.516;6.094;2022-08-21T18:05:55;24.00;82.60
26212;DHT22;13951;49.516;6.094;2022-08-21T18:08:28;24.00;82.80
26212;DHT22;13951;49.516;6.094;2022-08-21T18:11:04;23.90;82.70
26212;DHT22;13951;49.516;6.094;2022-08-21T18:13:42;23.90;84.30
26212;DHT22;13951;49.516;6.094;2022-08-21T18:16:16;23.80;82.80
26212;DHT22;13951;49.516;6.094;2022-08-21T18:18:51;23.80;84.80
26212;DHT22;13951;49.516;6.094;2022-08-21T18:21:24;23.80;85.10
26212;DHT22;13951;49.516;6.094;2022-08-21T18:23:57;23.70;84.00